Data for 06/09/2010

Time Sea-Level Adjusted Pressure Absolute Pressure Temperature Relative Humidity Dew Point   
(mb) (inHg) (mb) (inHg) (C) (F) (%) (C) (F)
00:05 1017 30.03 847 25.01 13.8 56.9 36 -0.9 30.4
00:10 1017 30.03 846 24.98 13.7 56.7 36 -0.9 30.5
00:15 1017 30.03 846 24.98 13.6 56.6 37 -0.6 30.9
00:20 1017 30.03 846 24.98 13.6 56.4 38 -0.4 31.3
00:25 1017 30.03 846 24.98 13.5 56.2 38 -0.6 31
00:30 1017 30.03 846 24.98 13.5 56.2 38 -0.4 31.2
00:35 1017 30.03 846 24.98 13.4 56 39 -0.2 31.6
00:40 1017 30.03 846 24.98 13.3 55.9 40 -0.1 31.7
00:45 1017 30.03 846 24.98 13.2 55.7 40 0 32
00:50 1017 30.03 846 24.98 13.1 55.6 40 -0.1 31.8
00:55 1017 30.03 846 24.98 13.2 55.7 40 0 32.1
01:00 1017 30.03 846 24.98 13.1 55.5 41 0.1 32.2
01:05 1017 30.03 846 24.98 13.1 55.5 41 0 32.1
01:10 1017 30.03 846 24.98 13.1 55.6 40 0.1 32.1
01:15 1017 30.03 846 24.98 13.1 55.5 41 0.2 32.3
01:20 1017 30.03 846 24.98 13 55.5 41 0 32
01:25 1017 30.03 846 24.98 13 55.5 42 0.4 32.7
01:30 1017 30.03 846 24.98 12.9 55.3 41 0.2 32.3
01:35 1017 30.03 846 24.98 13 55.4 41 0 32
01:40 1017 30.03 846 24.98 13.1 55.5 41 0.1 32.2
01:45 1017 30.03 846 24.98 13 55.4 41 0.2 32.3
01:50 1017 30.03 846 24.98 12.9 55.3 41 0.1 32.2
01:55 1017 30.03 846 24.98 12.9 55.2 41 0.2 32.3
02:00 1017 30.03 846 24.98 12.9 55.3 41 -0.1 31.9
02:05 1017 30.03 846 24.98 12.9 55.3 41 0.2 32.4
02:10 1017 30.03 846 24.98 12.8 55.1 41 0.1 32.2
02:15 1017 30.03 846 24.98 12.7 54.9 42 0.2 32.4
02:20 1017 30.03 846 24.98 12.6 54.6 43 0.4 32.8
02:25 1016 30 846 24.98 12.5 54.5 43 0.4 32.7
02:30 1016 30 846 24.98 12.4 54.3 43 0.3 32.6
02:35 1016 30 846 24.98 12.4 54.3 44 0.6 33.1
02:40 1016 30 846 24.98 12.3 54.1 44 0.3 32.6
02:45 1016 30 846 24.98 12.4 54.4 42 0.1 32.2
02:50 1016 30 846 24.98 12.6 54.6 43 0.3 32.5
02:55 1016 30 846 24.98 12.5 54.5 43 0.3 32.5
03:00 1016 30 846 24.98 12.4 54.4 43 0.4 32.7
03:05 1016 30 846 24.98 12.3 54.2 45 0.6 33.1
03:10 1016 30 845 24.95 12.2 53.9 44 0.5 32.8
03:15 1016 30 845 24.95 12.1 53.8 44 0.4 32.7
03:20 1016 30 845 24.95 12.2 53.9 44 0.4 32.7
03:25 1016 30 845 24.95 12.1 53.8 45 0.6 33
03:30 1016 30 845 24.95 12 53.6 45 0.5 33
03:35 1016 30 845 24.95 12 53.5 45 0.4 32.7
03:40 1016 30 845 24.95 12 53.6 45 0.6 33
03:45 1016 30 845 24.95 12 53.5 45 0.5 33
03:50 1016 30 845 24.95 12 53.5 46 0.6 33.1
03:55 1016 30 845 24.95 11.9 53.3 46 0.8 33.4
04:00 1016 30 845 24.95 11.7 53.1 47 0.9 33.6
04:05 1016 30 845 24.95 11.6 52.9 48 1 33.9
04:10 1016 30 845 24.95 11.6 52.8 48 1 33.8
04:15 1016 30 845 24.95 11.5 52.6 49 1.2 34.2
04:20 1016 30 845 24.95 11.4 52.5 50 1.4 34.5
04:25 1016 30 845 24.95 11.3 52.3 50 1.4 34.5
04:30 1016 30 845 24.95 11.2 52.2 50 1.3 34.4
04:35 1015 29.97 845 24.95 11.2 52.2 51 1.5 34.6
04:40 1015 29.97 845 24.95 11.2 52.1 51 1.6 34.8
04:45 1015 29.97 845 24.95 11.1 52 52 1.6 35
04:50 1015 29.97 845 24.95 11.1 52 52 1.7 35.1
04:55 1015 29.97 845 24.95 11.1 52 52 1.8 35.2
05:00 1016 30 845 24.95 11.2 52.1 53 1.9 35.5
05:05 1015 29.97 845 24.95 11.1 52 53 1.9 35.4
05:10 1015 29.97 845 24.95 11.1 52 53 1.9 35.4
05:15 1015 29.97 845 24.95 11.1 51.9 53 1.9 35.4
05:20 1015 29.97 845 24.95 11.1 51.9 53 1.9 35.5
05:25 1015 29.97 845 24.95 11 51.9 54 2.1 35.8
05:30 1015 29.97 845 24.95 11 51.7 54 2.2 35.9
05:35 1015 29.97 845 24.95 10.9 51.7 54 2 35.7
05:40 1015 29.97 844 24.92 11 51.8 53 1.9 35.4
05:45 1015 29.97 844 24.92 11 51.8 54 2.2 36
05:50 1015 29.97 844 24.92 11 51.8 54 2.1 35.8
05:55 1015 29.97 844 24.92 11 51.8 54 2 35.6
06:00 1015 29.97 844 24.92 11.1 51.9 54 2.2 35.9
06:05 1015 29.97 844 24.92 11 51.8 53 1.9 35.4
06:10 1015 29.97 845 24.95 11.2 52.1 53 2 35.6
06:15 1015 29.97 845 24.95 11.1 52 54 2.3 36.1
06:20 1015 29.97 844 24.92 11.1 52 53 2 35.7
06:25 1015 29.97 844 24.92 11.1 52.1 53 2 35.5
06:30 1015 29.97 844 24.92 11.2 52.2 53 2.1 35.8
06:35 1015 29.97 844 24.92 11.3 52.3 52 1.8 35.2
06:40 1015 29.97 844 24.92 11.4 52.4 53 2.1 35.9
06:45 1015 29.97 844 24.92 11.3 52.3 52 1.8 35.3
06:50 1015 29.97 844 24.92 11.4 52.5 53 2.1 35.7
06:55 1015 29.97 844 24.92 11.4 52.4 54 2.3 36.2
07:00 1014 29.94 844 24.92 11.3 52.4 53 2.1 35.9
07:05 1014 29.94 844 24.92 11.4 52.4 54 2.4 36.4
07:10 1015 29.97 844 24.92 11.3 52.3 53 2.2 36
07:15 1014 29.94 844 24.92 11.4 52.4 53 2.2 36
07:20 1014 29.94 843 24.89 11.4 52.6 53 2.3 36.1
07:25 1014 29.94 843 24.89 11.5 52.8 52 2.2 35.9
07:30 1014 29.94 843 24.89 11.8 53.3 51 2.1 35.8
07:35 1014 29.94 843 24.89 11.9 53.3 51 2.2 36
07:40 1014 29.94 843 24.89 11.9 53.4 52 2.4 36.3
07:45 1014 29.94 843 24.89 11.9 53.4 52 2.5 36.5
07:50 1014 29.94 843 24.89 12 53.5 52 2.4 36.3
07:55 1013 29.91 843 24.89 12 53.6 52 2.5 36.5
08:00 1013 29.91 843 24.89 12 53.6 51 2.4 36.3
08:05 1013 29.91 843 24.89 12.1 53.8 52 2.6 36.7
08:10 1013 29.91 843 24.89 12.2 54 52 2.7 36.9
08:15 1013 29.91 842 24.86 12.3 54.1 52 2.7 36.9
08:20 1013 29.91 843 24.89 12.4 54.2 52 2.8 37.1
08:25 1013 29.91 843 24.89 12.4 54.3 52 2.9 37.2
08:30 1013 29.91 843 24.89 12.3 54.1 52 2.7 36.9
08:35 1013 29.91 842 24.86 12.3 54.1 53 3.1 37.6
08:40 1013 29.91 842 24.86 12.3 54.1 53 2.9 37.2
08:45 1013 29.91 842 24.86 12.4 54.3 52 2.9 37.2
08:50 1013 29.91 842 24.86 12.7 54.8 50 2.5 36.5
08:55 1013 29.91 842 24.86 12.9 55.2 49 2.5 36.5
09:00 1013 29.91 842 24.86 13.2 55.7 47 2.3 36.1
09:05 1013 29.91 842 24.86 13.5 56.2 48 2.7 36.8
09:10 1013 29.91 842 24.86 13.5 56.3 48 2.9 37.3
09:15 1013 29.91 842 24.86 13.5 56.3 48 2.8 37.1
09:20 1013 29.91 842 24.86 13.5 56.3 48 2.8 37.1
09:25 1013 29.91 842 24.86 13.5 56.3 48 2.9 37.2
09:30 1013 29.91 842 24.86 13.6 56.4 48 2.7 36.9
09:35 1012 29.88 842 24.86 13.6 56.5 49 3.1 37.5
09:40 1012 29.88 842 24.86 13.7 56.6 47 2.7 36.9
09:45 1012 29.88 841 24.83 13.9 56.9 47 2.8 37
09:50 1012 29.88 841 24.83 14 57.2 46 2.7 36.8
09:55 1012 29.88 841 24.83 14.2 57.6 46 2.7 36.9
10:00 1012 29.88 841 24.83 14.4 57.9 45 2.7 36.8
10:05 1012 29.88 841 24.83 14.5 58.1 45 2.7 36.9
10:10 1012 29.88 841 24.83 14.7 58.4 44 2.8 37
10:15 1012 29.88 841 24.83 14.9 58.8 45 3 37.4
10:20 1012 29.88 841 24.83 15 59 44 2.8 37.1
10:25 1012 29.88 841 24.83 15.1 59.2 44 3 37.4
10:30 1012 29.88 841 24.83 15.4 59.7 42 2.7 36.8
10:35 1012 29.88 841 24.83 15.7 60.2 42 2.8 37.1
10:40 1011 29.85 841 24.83 15.9 60.6 41 2.8 37.1
10:45 1011 29.85 841 24.83 16.2 61.1 40 2.8 37
10:50 1011 29.85 841 24.83 16.3 61.4 41 3.2 37.7
10:55 1011 29.85 841 24.83 16.5 61.8 40 3 37.3
11:00 1011 29.85 841 24.83 16.5 61.8 40 3 37.4
11:05 1011 29.85 841 24.83 16.5 61.7 40 2.9 37.2
11:10 1011 29.85 840 24.81 16.7 62 40 3.2 37.7
11:15 1011 29.85 840 24.81 16.7 62.1 41 3.4 38.2
11:20 1011 29.85 840 24.81 16.8 62.3 40 3.3 37.9
11:25 1011 29.85 840 24.81 16.9 62.5 40 3.4 38.1
11:30 1011 29.85 840 24.81 17.3 63.1 38 3.1 37.6
11:35 1011 29.85 840 24.81 17.3 63.1 39 3.4 38
11:40 1011 29.85 840 24.81 17.7 63.8 37 3 37.4
11:45 1011 29.85 840 24.81 17.6 63.7 38 3.3 37.9
11:50 1011 29.85 840 24.81 17.8 64.1 37 3.2 37.7
11:55 1011 29.85 840 24.81 17.9 64.3 38 3.4 38.1
12:00 1011 29.85 840 24.81 18 64.5 38 3.6 38.4
12:05 1011 29.85 840 24.81 18.4 65.2 37 3.5 38.4
12:10 1011 29.85 840 24.81 18.6 65.5 36 3.5 38.2
12:15 1011 29.85 840 24.81 18.7 65.7 34 2.8 37.1
12:20 1011 29.85 840 24.81 19.4 67 34 3.2 37.8
12:25 1011 29.85 840 24.81 19.3 66.8 34 3.1 37.6
12:30 1011 29.85 840 24.81 19.8 67.7 32 2.8 37
12:35 1011 29.85 840 24.81 20.2 68.3 33 3.4 38
12:40 1010 29.83 840 24.81 20.4 68.7 31 2.8 37
12:45 1010 29.83 840 24.81 20.2 68.3 33 3.4 38.1
12:50 1010 29.83 840 24.81 20.3 68.5 31 2.8 37
12:55 1010 29.83 839 24.78 20.7 69.2 31 3.1 37.5
13:00 1010 29.83 839 24.78 20.5 68.8 31 3.1 37.7
13:05 1010 29.83 839 24.78 20.9 69.5 29 2.5 36.5
13:10 1010 29.83 839 24.78 21.1 70 30 2.9 37.2
13:15 1010 29.83 839 24.78 21.8 71.2 28 2.8 37.1
13:20 1010 29.83 839 24.78 21.8 71.2 33 4.9 40.8
13:25 1010 29.83 839 24.78 21.8 71.3 30 3.7 38.7
13:30 1010 29.83 839 24.78 22.1 71.7 29 3.6 38.4
13:35 1010 29.83 839 24.78 22.6 72.7 28 3.5 38.2
13:40 1010 29.83 839 24.78 22.9 73.2 28 3.5 38.3
13:45 1010 29.83 839 24.78 22.3 72.1 28 3.3 37.9
13:50 1010 29.83 839 24.78 22.5 72.5 29 3.9 39.1
13:55 1010 29.83 839 24.78 22.9 73.2 28 3.8 38.8
14:00 1010 29.83 839 24.78 22.9 73.3 29 4 39.2
14:05 1010 29.83 839 24.78 23.2 73.8 32 5.8 42.5
14:10 1010 29.83 839 24.78 23.4 74.1 32 6.1 43.1
14:15 1010 29.83 839 24.78 22.6 72.6 34 6 42.8
14:20 1010 29.83 839 24.78 22 71.7 34 5.8 42.4
14:25 1010 29.83 839 24.78 22.5 72.5 33 5.5 41.9
14:30 1010 29.83 839 24.78 23.5 74.3 31 5.8 42.4
14:35 1010 29.83 839 24.78 23.8 74.8 30 5.4 41.7
14:40 1010 29.83 839 24.78 23.8 74.8 34 7.1 44.7
14:45 1009 29.8 839 24.78 23.7 74.7 30 5.2 41.4
14:50 1009 29.8 839 24.78 24.1 75.4 32 6.8 44.2
14:55 1009 29.8 839 24.78 24 75.1 30 5.7 42.3
15:00 1009 29.8 839 24.78 23.7 74.6 30 5.3 41.5
15:05 1009 29.8 839 24.78 23.6 74.4 32 6.2 43.1
15:10 1009 29.8 838 24.75 23.1 73.6 33 6.2 43.2
15:15 1009 29.8 838 24.75 23.2 73.7 39 8.6 47.4
15:20 1009 29.8 839 24.78 22.2 71.9 41 8.6 47.4
15:25 1009 29.8 839 24.78 20.8 69.4 41 7.3 45.1
15:30 1010 29.83 839 24.78 19.7 67.4 45 7.6 45.8
15:35 1010 29.83 839 24.78 18.8 65.8 49 8 46.5
15:40 1010 29.83 839 24.78 18.2 64.8 50 7.7 45.9
15:45 1010 29.83 839 24.78 17.9 64.2 53 8.2 46.8
15:50 1010 29.83 839 24.78 17.5 63.4 58 9.1 48.5
15:55 1010 29.83 839 24.78 16.7 62.1 64 9.9 49.9
16:00 1011 29.85 840 24.81 16.3 61.3 66 10 50.1
16:05 1011 29.85 840 24.81 15.6 60 73 10.8 51.4
16:10 1011 29.85 840 24.81 14.7 58.4 79 11.1 51.9
16:15 1011 29.85 840 24.81 14 57.1 83 11.1 52
16:20 1011 29.85 841 24.83 13.7 56.6 81 10.6 51
16:25 1011 29.85 841 24.83 13.5 56.3 81 10.3 50.5
16:30 1012 29.88 841 24.83 13.5 56.2 83 10.7 51.3
16:35 1012 29.88 841 24.83 13.7 56.6 81 10.6 51
16:40 1012 29.88 841 24.83 13.8 56.9 81 10.6 51
16:45 1012 29.88 841 24.83 14 57.2 78 10.2 50.4
16:50 1012 29.88 841 24.83 13.8 56.9 80 10.4 50.7
16:55 1012 29.88 841 24.83 13.7 56.7 82 10.7 51.3
17:00 1012 29.88 841 24.83 13.7 56.6 78 10 50
17:05 1012 29.88 841 24.83 13.7 56.6 84 11.1 52
17:10 1012 29.88 841 24.83 13.4 56.2 83 10.7 51.3
17:15 1012 29.88 841 24.83 13.3 56 85 10.9 51.7
17:20 1012 29.88 841 24.83 13.1 55.5 88 11.1 52
17:25 1012 29.88 841 24.83 13.1 55.6 85 10.6 51.1
17:30 1012 29.88 841 24.83 13.2 55.8 86 10.9 51.6
17:35 1012 29.88 841 24.83 13.3 56 85 10.8 51.5
17:40 1012 29.88 841 24.83 13.4 56.1 83 10.6 51.1
17:45 1012 29.88 841 24.83 13.5 56.3 84 10.9 51.5
17:50 1012 29.88 841 24.83 13.5 56.3 84 10.9 51.7
17:55 1012 29.88 841 24.83 13.3 55.9 83 10.5 50.8
18:00 1012 29.88 841 24.83 13.1 55.6 81 9.9 49.9
18:05 1012 29.88 841 24.83 13.1 55.5 80 9.7 49.5
18:10 1012 29.88 841 24.83 13.1 55.6 80 9.7 49.4
18:15 1012 29.88 841 24.83 13.1 55.6 79 9.6 49.2
18:20 1012 29.88 841 24.83 13.1 55.5 79 9.5 49.2
18:25 1012 29.88 841 24.83 13 55.4 80 9.7 49.4
18:30 1012 29.88 841 24.83 12.6 54.7 83 9.9 49.8
18:35 1012 29.88 841 24.83 12.4 54.3 85 9.9 49.8
18:40 1012 29.88 841 24.83 12.3 54.1 83 9.6 49.2
18:45 1012 29.88 841 24.83 12.3 54.1 83 9.4 49
18:50 1012 29.88 841 24.83 12.2 54 83 9.5 49
18:55 1012 29.88 841 24.83 12.3 54.2 81 9.1 48.5
19:00 1012 29.88 841 24.83 12.5 54.5 82 9.6 49.3
19:05 1012 29.88 841 24.83 12.5 54.5 83 9.7 49.5
19:10 1012 29.88 841 24.83 12.5 54.4 85 10.1 50.2
19:15 1012 29.88 841 24.83 12.5 54.5 85 10 49.9
19:20 1012 29.88 841 24.83 12.3 54.1 86 10 50
19:25 1012 29.88 841 24.83 12.2 54 83 9.5 49.1
19:30 1012 29.88 841 24.83 12.3 54.2 84 9.8 49.6
19:35 1012 29.88 841 24.83 12.5 54.5 81 9.4 49
19:40 1012 29.88 841 24.83 12.7 54.9 81 9.5 49.2
19:45 1012 29.88 841 24.83 12.9 55.1 82 9.9 49.9
19:50 1012 29.88 841 24.83 12.8 55.1 84 10.2 50.3
19:55 1012 29.88 841 24.83 12.8 55.1 83 10 50
20:00 1012 29.88 841 24.83 12.9 55.2 83 10.1 50.1
20:05 1012 29.88 841 24.83 12.8 55.1 82 9.9 49.8
20:10 1012 29.88 841 24.83 12.8 55 82 9.9 49.8
20:15 1012 29.88 841 24.83 12.7 54.9 83 10 49.9
20:20 1012 29.88 841 24.83 12.8 55 84 10.1 50.2
20:25 1012 29.88 841 24.83 12.7 54.8 84 10 50.1
20:30 1012 29.88 841 24.83 12.7 54.8 83 9.8 49.7
20:35 1012 29.88 841 24.83 12.6 54.6 83 9.8 49.6
20:40 1012 29.88 841 24.83 12.5 54.5 84 9.9 49.8
20:45 1012 29.88 841 24.83 12.3 54.2 85 9.9 49.8
20:50 1012 29.88 841 24.83 12.2 54 84 9.6 49.3
20:55 1012 29.88 841 24.83 12.2 53.9 83 9.4 48.9
21:00 1012 29.88 841 24.83 12.1 53.7 84 9.4 48.9
21:05 1012 29.88 841 24.83 12 53.6 83 9.2 48.5
21:10 1011 29.85 841 24.83 12 53.6 82 9 48.2
21:15 1011 29.85 841 24.83 12 53.5 82 9 48.2
21:20 1011 29.85 841 24.83 11.9 53.4 82 8.9 48
21:25 1012 29.88 841 24.83 12 53.5 81 8.8 47.9
21:30 1012 29.88 841 24.83 11.9 53.3 82 9 48.2
21:35 1012 29.88 841 24.83 11.9 53.3 80 8.6 47.5
21:40 1012 29.88 841 24.83 11.9 53.4 82 8.9 48.1
21:45 1012 29.88 841 24.83 11.8 53.2 84 9.2 48.6
21:50 1012 29.88 841 24.83 11.7 53 85 9.3 48.7
21:55 1012 29.88 841 24.83 11.6 52.8 85 9.2 48.6
22:00 1012 29.88 841 24.83 11.6 52.9 84 9.1 48.3
22:05 1012 29.88 841 24.83 11.7 53 83 8.9 48
22:10 1012 29.88 841 24.83 11.7 53 82 8.8 47.8
22:15 1012 29.88 841 24.83 11.7 53.1 81 8.6 47.5
22:20 1012 29.88 842 24.86 11.8 53.2 80 8.5 47.3
22:25 1012 29.88 842 24.86 11.7 53.1 79 8.3 46.9
22:30 1012 29.88 842 24.86 11.8 53.2 79 8.2 46.8
22:35 1012 29.88 841 24.83 11.8 53.2 80 8.6 47.4
22:40 1012 29.88 841 24.83 11.5 52.7 84 8.9 48.1
22:45 1012 29.88 841 24.83 11.2 52.1 84 8.5 47.4
22:50 1012 29.88 841 24.83 11.4 52.4 80 8.1 46.5
22:55 1012 29.88 841 24.83 11.6 52.9 78 7.9 46.2
23:00 1012 29.88 841 24.83 11.7 53 81 8.4 47.2
23:05 1012 29.88 841 24.83 11.3 52.3 85 8.9 48
23:10 1012 29.88 841 24.83 11 51.8 87 8.8 47.9
23:15 1012 29.88 841 24.83 10.8 51.4 87 8.7 47.7
23:20 1012 29.88 841 24.83 10.8 51.4 86 8.5 47.2
23:25 1012 29.88 841 24.83 10.8 51.5 85 8.4 47.2
23:30 1012 29.88 841 24.83 10.6 51 87 8.5 47.3
23:35 1012 29.88 841 24.83 10.3 50.5 87 8.1 46.6
23:40 1012 29.88 841 24.83 10.4 50.8 84 7.8 46
23:45 1012 29.88 841 24.83 10.6 51 83 7.8 46.1
23:50 1012 29.88 841 24.83 10.6 51.1 81 7.6 45.6
23:55 1012 29.88 841 24.83 10.7 51.3 81 7.6 45.6
24:00 1012 29.88 841 24.83 10.8 51.4 80 7.5 45.5